Terminal Aerodrome Forecast
Issued by NWS

Current Version | Previous Version | Graphics & Text | Print | Product List | Glossary On
Versions: 1 2 3 4 5 6 7 8 9 10 11 12 13 14 15 16 17
000
FTUS41 KPBZ 261734
TAFMGW
TAF
KMGW 261734Z 2618/2718 21005KT P6SM VCTS BKN040CB
     FM270000 29005KT P6SM SCT050
     FM270400 VRB03KT P6SM SCT100=

USA.gov is the U.S. government's official web portal to all federal, state and local government web resources and services.